Tiempo atmosférico en la estación meteorológica de Rojales, Alacant/Alicante (31 m.)



Fecha
DESCASC
Temp. máxima en grados centígrados (hora)
DESCASC
Temp. mínima en grados centígrados (hora)
DESCASC
Temp. media en grados centígrados
DESCASC
Racha de viento máxima en m/sg (hora)
DESCASC
Velocidad máxima media en intervalos de 10 minutos(hora)
DESCASC
Precipitaciones diarias en mm
DESCASC
Precipitaciones de 00:00 a 06:00 en mm
DESCASC
Precipitaciones de 06:00 a 12:00 en mm
DESCASC
Precipitaciones de 12:00 a 18:00 en mm
DESCASC
Precipitaciones de 18:00 a 24:00 en mm
DESCASC
23-06-2019 26.9 (16:30) 18.3 (06:50) 22.6 8.33 (20:00) 5.28 (20:00) 0 0 0 0 0
22-06-2019 27 (15:30) 19.1 (06:50) 23.1 8.89 (13:40) 5.83 (13:50) 0 0 0 0 0
21-06-2019 27 (14:10) 19.8 (05:10) 23.4 8.89 (16:00) 4.72 (16:30) 0 0 0 0 0
20-06-2019 26.6 (12:30) 19.3 (00:00) 22.9 9.44 (14:50) 5.83 (13:50) 0 0 0 0 0
19-06-2019 33 (15:50) 18.2 (00:00) 25.6 7.78 (17:00) 4.72 (16:10) 0 0 0 0 0
18-06-2019 26.6 (15:20) 15.6 (00:00) 21.1 8.06 (14:50) 5 (14:40) 0 0 0 0 0
17-06-2019 28.3 (12:10) 15.9 (00:00) 22.1 7.78 (17:30) 5 (13:20) 0 0 0 0 0
16-06-2019 23.9 (14:10) 16.3 (00:00) 20.1 11.39 (13:20) 6.39 (11:40) 0 0 0 0 0
15-06-2019 30 (13:40) 19.2 (00:00) 24.6 8.89 (16:40) 5.28 (16:10) 0 0 0 0 0
14-06-2019 29.6 (16:20) 19.2 (00:00) 24.4 10.83 (16:00) 6.11 (16:00) 0.2 0 0.2 0 0
13-06-2019 24.1 (14:10) 19.1 (00:00) 21.6 13.61 (13:20) 8.33 (14:00) 0 0 0 0 0
12-06-2019 23.1 (12:40) 14.8 (00:00) 19 11.67 (17:00) 6.67 (14:30) 0 0 0 0 0
11-06-2019 24.5 (12:30) 16.1 (00:00) 20.3 14.17 (19:30) 9.17 (19:30) 0 0 0 0 0
10-06-2019 26 (13:10) 18.8 (00:00) 22.4 9.72 (14:40) 5 (13:50) 0 0 0 0 0
09-06-2019 27.9 (14:20) 18.8 (00:00) 23.3 10 (16:10) 5.56 (16:30) 0 0 0 0 0
08-06-2019 24.2 (09:50) 17 (00:00) 20.6 15.83 (13:30) 10 (14:30) 0 0 0 0 0
07-06-2019 27.9 (18:40) 16 (00:00) 21.9 9.17 (16:50) 5.83 (16:00) 0 0 0 0 0
06-06-2019 24.5 (12:50) 15.4 (00:00) 19.9 10 (12:10) 5.83 (12:10) 0 0 0 0 0
05-06-2019 30.5 (18:00) 16.8 (00:00) 23.6 15 (13:30) 9.17 (13:10) 0 0 0 0 0
04-06-2019 27.3 (16:10) 16.1 (00:00) 21.7 8.89 (18:40) 5.83 (15:30) 0 0 0 0 0
03-06-2019 26.7 (15:40) 14.6 (00:00) 20.7 7.22 (17:00) 3.89 (15:00) 0 0 0 0 0
02-06-2019 27.4 (13:00) 13.2 (00:00) 20.3 6.67 (18:00) 3.89 (18:40) 0 0 0 0 0
01-06-2019 26 (15:00) 13.6 (00:00) 19.8 6.94 (18:20) 4.44 (18:10) 0 0 0 0 0
31-05-2019 23.6 (16:00) 12.7 (00:00) 18.2 8.06 (16:30) 4.72 (17:10) 0 0 0 0 0
30-05-2019 23.6 (13:50) 13.6 (00:00) 18.6 7.5 (15:00) 4.44 (15:00) 0 0 0 0 0
29-05-2019 22.1 (12:20) 14.8 (00:00) 18.5 11.94 (15:50) 6.94 (15:50) 0 0 0 0 0
28-05-2019 24.1 (11:00) 18 (00:00) 21.1 9.17 (14:30) 5.83 (15:40) 0 0 0 0 0
27-05-2019 26.6 (16:30) 15.7 (00:00) 21.2 9.17 (16:00) 5.83 (15:40) 0 0 0 0 0

Gráficas

Temp. máximas Temp. mínimas Temp. medias Precipitaciones Rachas de viento máximas Velocidades máximas media en intervalos de 10 minutos

Datos horarios

Fecha y hora oficial Temperatura (ºC) Velocidad del viento (km/h) Dirección del viento Racha (km/h) Dirección de racha Precipitación (mm) Presión (hPa) Tendencia (hPa) Humedad (%)
2019-06-25 23:00:00 23 8 Este 17 Este 0 -- -- 85
2019-06-25 22:00:00 23.3 9 Este 20 Este 0 -- -- 82
2019-06-25 21:00:00 24.1 14 Este 26 Este 0 -- -- 77
2019-06-25 20:00:00 25.3 16 Este 28 Este 0 -- -- 68
2019-06-25 19:00:00 26.2 12 Este 23 Este 0 -- -- 66
2019-06-25 18:00:00 26.8 13 Este 28 Este 0 -- -- 63
2019-06-25 17:00:00 27.1 14 Este 27 Este 0 -- -- 62
2019-06-25 16:00:00 27.2 17 Este 29 Nordeste 0 -- -- 62
2019-06-25 15:00:00 27.3 16 Este 26 Este 0 -- -- 65
2019-06-25 14:00:00 27.6 12 Sudeste 30 Sudeste 0 -- -- 65
2019-06-25 13:00:00 27 19 Sudeste 31 Sudeste 0 -- -- 66
2019-06-25 12:00:00 27.2 4 Sudoeste 17 Este 0 -- -- 62
2019-06-25 11:00:00 26.4 7 Sur 17 Sur 0 -- -- 66
2019-06-25 10:00:00 24.1 7 Sur 12 Sur 0 -- -- 74
2019-06-25 09:00:00 23.3 3 Norte 6 Norte 0 -- -- 80
2019-06-25 08:00:00 21.1 3 Este 5 Este 0 -- -- 90
2019-06-25 07:00:00 19.6 2 Oeste 5 Sudoeste 0 -- -- 90
2019-06-25 06:00:00 20 3 Sur 5 Sudoeste 0 -- -- 90
2019-06-25 05:00:00 20.5 3 Sudoeste 8 Sudoeste 0 -- -- 91
2019-06-25 04:00:00 21 5 Oeste 10 Oeste 0 -- -- 92
2019-06-25 03:00:00 20.7 3 Sudoeste 7 Oeste 0 -- -- 91
2019-06-25 02:00:00 21.3 4 Oeste 8 Oeste 0 -- -- 90
2019-06-25 01:00:00 21.3 3 Noroeste 5 Noroeste 0 -- -- 88
2019-06-25 00:00:00 22.2 0 Calma 9 Este 0 -- -- 87
2019-06-24 23:00:00 22.5 5 Sudeste 15 Este 0 -- -- 86
2019-06-24 22:00:00 22.8 8 Sudeste 18 Sudeste 0 -- -- 84
2019-06-24 21:00:00 24.3 10 Este 19 Este 0 -- -- 77
2019-06-24 20:00:00 26.8 8 Este 18 Este 0 -- -- 57
2019-06-24 19:00:00 27.6 10 Este 18 Este 0 -- -- 54
2019-06-24 18:00:00 28.3 12 Este 20 Este 0 -- -- 51
2019-06-24 17:00:00 28.5 11 Este 22 Este 0 -- -- 50
2019-06-24 16:00:00 28.2 12 Este 27 Este 0 -- -- 51
2019-06-24 15:00:00 28.1 13 Este 28 Este 0 -- -- 49
2019-06-24 14:00:00 27.8 15 Este 28 Este 0 -- -- 50
2019-06-24 13:00:00 28.3 14 Este 28 Nordeste 0 -- -- 47
2019-06-24 12:00:00 28.1 12 Este 24 Sudeste 0 -- -- 45
2019-06-24 11:00:00 27.2 14 Nordeste 23 Nordeste 0 -- -- 50
2019-06-24 10:00:00 25.7 4 Noroeste 13 Este 0 -- -- 54
2019-06-24 09:00:00 22.1 4 Noroeste 5 Oeste 0 -- -- 67
2019-06-24 08:00:00 20 2 Norte 8 Este 0 -- -- 74
2019-06-24 07:00:00 17.8 2 Sudeste 5 Sudeste 0 -- -- 84
2019-06-24 06:00:00 18.1 0 Calma 6 Sudoeste 0 -- -- 81
2019-06-24 05:00:00 19 0 Calma 12 Sudoeste 0 -- -- 76
2019-06-24 04:00:00 20.5 8 Sudoeste 11 Sudoeste 0 -- -- 68
2019-06-24 03:00:00 20.6 3 Oeste 10 Oeste 0 -- -- 66
2019-06-24 02:00:00 20.9 5 Sudoeste 13 Sudoeste 0 -- -- 66
2019-06-24 01:00:00 20.9 2 Este 5 Norte 0 -- -- 68
2019-06-24 00:00:00 21.7 3 Nordeste 11 Nordeste 0 -- -- 72
2019-06-23 23:00:00 22.2 3 Norte 12 Nordeste 0 -- -- 71
2019-06-23 22:00:00 22.7 9 Nordeste 22 Nordeste 0 -- -- 76
2019-06-23 21:00:00 23.4 13 Nordeste 28 Este 0 -- -- 76
2019-06-23 20:00:00 24.3 19 Este 30 Este 0 -- -- 73
2019-06-23 19:00:00 25.2 15 Este 28 Este 0 -- -- 69
2019-06-23 18:00:00 26.1 13 Este 27 Este 0 -- -- 66
2019-06-23 17:00:00 26.4 16 Este 27 Este 0 -- -- 61
2019-06-23 16:00:00 26.6 18 Este 28 Este 0 -- -- 56
2019-06-23 15:00:00 26.6 16 Este 28 Este 0 -- -- 59
2019-06-23 14:00:00 26.2 15 Este 25 Este 0 -- -- 63
2019-06-23 13:00:00 26.1 15 Este 24 Este 0 -- -- 62
2019-06-23 12:00:00 25.5 14 Nordeste 24 Nordeste 0 -- -- 69
2019-06-23 11:00:00 25 12 Este 24 Este 0 -- -- 70
2019-06-23 10:00:00 23.9 14 Nordeste 23 Nordeste 0 -- -- 75
2019-06-23 09:00:00 21.5 4 Noroeste 6 Noroeste 0 -- -- 82
2019-06-23 08:00:00 19.3 3 Norte 6 Sudoeste 0 -- -- 90
2019-06-23 07:00:00 18.5 4 Sudoeste 6 Sudoeste 0 -- -- 94
2019-06-23 06:00:00 18.6 4 Sudoeste 8 Sudoeste 0 -- -- 93
2019-06-23 05:00:00 18.7 3 Oeste 8 Oeste 0 -- -- 93
2019-06-23 04:00:00 18.8 2 Noroeste 6 Noroeste 0 -- -- 92
2019-06-23 03:00:00 19.2 3 Oeste 5 Oeste 0 -- -- 91
2019-06-23 02:00:00 20.1 0 Calma 6 Este 0 -- -- 90
2019-06-23 01:00:00 20.4 0 Calma 4 Este 0 -- -- 90
2019-06-23 00:00:00 20.6 0 Calma 9 Este 0 -- -- 88
2019-06-22 23:00:00 21.3 5 Este 10 Nordeste 0 -- -- 87
2019-06-22 22:00:00 21.7 6 Nordeste 13 Este 0 -- -- 85
2019-06-22 21:00:00 22.5 9 Este 17 Este 0 -- -- 80
2019-06-22 20:00:00 24.2 12 Este 20 Este 0 -- -- 72
2019-06-22 19:00:00 24.8 12 Este 22 Este 0 -- -- 70
2019-06-22 18:00:00 25.4 14 Este 27 Este 0 -- -- 67
2019-06-22 17:00:00 26.4 14 Este 22 Nordeste 0 -- -- 62
2019-06-22 16:00:00 26.9 13 Este 27 Nordeste 0 -- -- 58
2019-06-22 15:00:00 26.6 17 Este 32 Este 0 -- -- 54
2019-06-22 14:00:00 25.8 18 Este 32 Este 0 -- -- 61
2019-06-22 13:00:00 26.2 16 Este 27 Este 0 -- -- 64
2019-06-22 12:00:00 26.5 10 Sudeste 21 Este 0 -- -- 61
2019-06-22 11:00:00 25.3 7 Sudeste 14 Oeste 0 -- -- 66
2019-06-22 10:00:00 24.4 5 Oeste 10 Oeste 0 -- -- 71
2019-06-22 09:00:00 22.1 5 Oeste 8 Oeste 0 -- -- 83
2019-06-22 08:00:00 19.8 3 Noroeste 5 Noroeste 0 -- -- 92
2019-06-22 07:00:00 19.1 3 Sudoeste 4 Sudoeste 0 -- -- 92
2019-06-22 06:00:00 19.5 2 Sudeste 4 Oeste 0 -- -- 90
2019-06-22 05:00:00 20.2 0 Calma 7 Sudeste 0 -- -- 88
2019-06-22 04:00:00 20.4 4 Sudeste 6 Sur 0 -- -- 90
2019-06-22 03:00:00 20.5 0 Calma 3 Este 0 -- -- 87
2019-06-22 02:00:00 21.1 0 Calma 8 Sudeste 0 -- -- 85
2019-06-22 01:00:00 21.3 5 Este 9 Este 0 -- -- 83
2019-06-22 00:00:00 21.6 3 Este 7 Este 0 -- -- 78
2019-06-21 23:00:00 22.1 3 Este 7 Este 0 -- -- 75
2019-06-21 22:00:00 22.5 4 Este 10 Este 0 -- -- 73
2019-06-21 21:00:00 23.4 5 Este 15 Este 0 -- -- 69
2019-06-21 20:00:00 24.1 9 Este 18 Este 0 -- -- 69
2019-06-21 19:00:00 24.9 11 Este 25 Este 0 -- -- 67
2019-06-21 18:00:00 25.4 13 Este 27 Sudeste 0 -- -- 62
2019-06-21 17:00:00 25.5 16 Este 31 Este 0 -- -- 65
2019-06-21 16:00:00 26.5 15 Sudeste 32 Este 0 -- -- 63
2019-06-21 15:00:00 26.8 16 Sudeste 28 Sudeste 0 -- -- 60
2019-06-21 14:00:00 26.6 12 Sudeste 24 Sudeste 0 -- -- 60
2019-06-21 13:00:00 25.8 12 Sudeste 27 Sudeste 0 -- -- 63
2019-06-21 12:00:00 25.7 13 Sudeste 23 Sudeste 0 -- -- 63
2019-06-21 11:00:00 24.4 11 Sudeste 20 Sudeste 0 -- -- 71
2019-06-21 10:00:00 23.2 6 Sur 12 Sudeste 0 -- -- 76
2019-06-21 09:00:00 22.5 3 Oeste 6 Oeste 0 -- -- 81
2019-06-21 08:00:00 21.1 3 Norte 8 Oeste 0 -- -- 87
2019-06-21 07:00:00 20.2 0 Calma 5 Norte 0 -- -- 89
2019-06-21 06:00:00 20.1 0 Calma 4 Sur 0 -- -- 89
2019-06-21 05:00:00 19.9 2 Nordeste 11 Nordeste 0 -- -- 87
2019-06-21 04:00:00 20.5 5 Este 11 Nordeste 0 -- -- 85
2019-06-21 03:00:00 21.3 8 Este 16 Este 0 -- -- 82
2019-06-21 02:00:00 21.1 8 Nordeste 13 Este 0 -- -- 85
2019-06-21 01:00:00 21.3 5 Este 12 Este 0 -- -- 86
2019-06-21 00:00:00 21.1 6 Este 15 Este 0 -- -- 86
2019-06-20 23:00:00 21 4 Este 10 Nordeste 0 -- -- 85
2019-06-20 22:00:00 21.5 6 Este 17 Este 0 -- -- 83
2019-06-20 21:00:00 22.6 11 Este 22 Este 0 -- -- 78
2019-06-20 20:00:00 23.6 14 Nordeste 26 Este 0 -- -- 74
2019-06-20 19:00:00 24.8 14 Nordeste 24 Nordeste 0 -- -- 68
2019-06-20 18:00:00 25.1 13 Este 26 Este 0 -- -- 67
2019-06-20 17:00:00 25.5 15 Este 27 Este 0 -- -- 66
2019-06-20 16:00:00 25.5 16 Este 33 Este 0 -- -- 67
2019-06-20 15:00:00 25.4 19 Este 34 Este 0 -- -- 65
2019-06-20 14:00:00 25.1 17 Este 31 Este 0 -- -- 68
2019-06-20 13:00:00 25.8 18 Este 31 Este 0 -- -- 63
2019-06-20 12:00:00 25.9 15 Este 24 Nordeste 0 -- -- 63
2019-06-20 11:00:00 25.2 12 Este 19 Nordeste 0 -- -- 70
2019-06-20 10:00:00 25.1 9 Este 14 Nordeste 0 -- -- 67
2019-06-20 09:00:00 22.7 5 Nordeste 12 Nordeste 0 -- -- 76
2019-06-20 08:00:00 21 9 Oeste 15 Oeste 0 -- -- 72
2019-06-20 07:00:00 20.3 6 Sur 16 Sur 0 -- -- 72
2019-06-20 06:00:00 19.4 4 Sur 9 Sudeste 0 -- -- 92
2019-06-20 05:00:00 19.3 4 Sudoeste 12 Oeste 0 -- -- 92
2019-06-20 04:00:00 19.3 6 Oeste 12 Oeste 0 -- -- 92
2019-06-20 03:00:00 19.6 0 Calma 11 Oeste 0 -- -- 90
2019-06-20 02:00:00 19.9 4 Oeste 8 Sur 0 -- -- 89
2019-06-20 01:00:00 20.5 4 Sur 7 Sudeste 0 -- -- 84
2019-06-20 00:00:00 21.1 3 Nordeste 13 Sudeste 0 -- -- 85
2019-06-19 23:00:00 21.7 8 Sudeste 19 Sudeste 0 -- -- 85
2019-06-19 22:00:00 22.2 10 Este 20 Nordeste 0 -- -- 83
2019-06-19 21:00:00 24.8 12 Este 22 Nordeste 0 -- -- 72
2019-06-19 20:00:00 30.5 8 Sudeste 19 Sudeste 0 -- -- 31
2019-06-19 19:00:00 31.3 12 Sudeste 23 Sur 0 -- -- 30
2019-06-19 18:00:00 32.1 14 Sudeste 28 Sudeste 0 -- -- 29
2019-06-19 17:00:00 32.6 15 Sudeste 28 Sur 0 -- -- 29
2019-06-19 16:00:00 32.8 16 Sudeste 28 Sudeste 0 -- -- 32
2019-06-19 15:00:00 32.8 16 Sudeste 26 Sudeste 0 -- -- 34
2019-06-19 14:00:00 32.4 13 Sudeste 20 Sudeste 0 -- -- 38
2019-06-19 13:00:00 32.4 5 Noroeste 12 Noroeste 0 -- -- 33
2019-06-19 12:00:00 30.7 5 Sudeste 13 Sudoeste 0 -- -- 35
2019-06-19 11:00:00 27.9 6 Oeste 15 Oeste 0 -- -- 43
2019-06-19 10:00:00 24.8 5 Oeste 12 Sudoeste 0 -- -- 59
2019-06-19 09:00:00 22.6 6 Sur 18 Sur 0 -- -- 70
2019-06-19 08:00:00 20.1 8 Sur 16 Sur 0 -- -- 84
2019-06-19 07:00:00 18.5 5 Sudoeste 12 Oeste 0 -- -- 91
2019-06-19 06:00:00 18.2 6 Oeste 12 Oeste 0 -- -- 91
2019-06-19 05:00:00 18.6 5 Oeste 13 Oeste 0 -- -- 90
2019-06-19 04:00:00 19.1 3 Sudoeste 15 Sur 0 -- -- 87
2019-06-19 03:00:00 19.4 4 Sudeste 12 Sudeste 0 -- -- 89
2019-06-19 02:00:00 19.6 3 Sur 6 Este 0 -- -- 89
2019-06-19 01:00:00 19.7 0 Calma 6 Norte 0 -- -- 87
2019-06-19 00:00:00 20.9 3 Sudeste 19 Sudeste 0 -- -- 85
2019-06-18 23:00:00 21.2 13 Sudeste 25 Sur 0 -- -- 82
2019-06-18 22:00:00 21.6 14 Sur 25 Sudeste 0 -- -- 81
2019-06-18 21:00:00 22.7 14 Sur 21 Sur 0 -- -- 72
2019-06-18 20:00:00 24.3 9 Sudeste 22 Sudeste 0 -- -- 64
2019-06-18 19:00:00 25.1 12 Sudeste 22 Este 0 -- -- 61
2019-06-18 18:00:00 25.8 13 Este 22 Este 0 -- -- 60
2019-06-18 17:00:00 26.2 13 Este 25 Sudeste 0 -- -- 55
2019-06-18 16:00:00 26.6 16 Sudeste 27 Sudeste 0 -- -- 52
2019-06-18 15:00:00 26.5 16 Sudeste 29 Sudeste 0 -- -- 58
2019-06-18 14:00:00 26.4 13 Sudeste 24 Sudeste 0 -- -- 53
2019-06-18 13:00:00 25.1 13 Sudeste 23 Sudeste 0 -- -- 65
2019-06-18 12:00:00 24.5 9 Este 16 Sudeste 0 -- -- 67
2019-06-18 11:00:00 23.5 9 Este 18 Este 0 -- -- 72
2019-06-18 10:00:00 22.1 6 Este 11 Este 0 -- -- 77
2019-06-18 09:00:00 19.9 4 Noroeste 8 Oeste 0 -- -- 77
2019-06-18 08:00:00 16.8 3 Oeste 5 Sudoeste 0 -- -- 92
2019-06-18 07:00:00 15.7 4 Oeste 6 Oeste 0 -- -- 94
2019-06-18 06:00:00 16.5 0 Calma 4 Sudoeste 0 -- -- 93
2019-06-18 05:00:00 16.7 3 Sudoeste 5 Sudoeste 0 -- -- 93
2019-06-18 04:00:00 17.1 3 Sudoeste 5 Oeste 0 -- -- 92
2019-06-18 03:00:00 17.7 0 Calma 3 Sudoeste 0 -- -- 89
2019-06-18 02:00:00 18.4 2 Sudeste 4 Sudeste 0 -- -- 87
2019-06-18 01:00:00 18.6 4 Este 5 Este 0 -- -- 89
2019-06-18 00:00:00 19 2 Este 4 Este 0 -- -- 88
2019-06-17 23:00:00 19.8 2 Nordeste 8 Este 0 -- -- 81
2019-06-17 22:00:00 21.1 5 Sudeste 14 Este 0 -- -- 80
2019-06-17 21:00:00 22.9 9 Este 20 Sudeste 0 -- -- 64
2019-06-17 20:00:00 24.3 12 Sudeste 26 Sudeste 0 -- -- 57
2019-06-17 19:00:00 25.1 13 Sudeste 25 Sudeste 0 -- -- 55
2019-06-17 18:00:00 25.8 18 Sudeste 28 Sudeste 0 -- -- 52
2019-06-17 17:00:00 26.7 14 Sudeste 28 Sudeste 0 -- -- 51
2019-06-17 16:00:00 27 16 Sudeste 27 Sudeste 0 -- -- 49
2019-06-17 15:00:00 27.4 17 Sudeste 26 Sudeste 0 -- -- 47
2019-06-17 14:00:00 27.1 15 Sudeste 28 Sudeste 0 -- -- 43
2019-06-17 13:00:00 27.1 14 Sudeste 25 Sudeste 0 -- -- 45
2019-06-17 12:00:00 28.2 6 Sur 15 Sudeste 0 -- -- 40
2019-06-17 11:00:00 25.8 3 Oeste 12 Noroeste 0 -- -- 45
2019-06-17 10:00:00 22.9 11 Oeste 15 Oeste 0 -- -- 58
2019-06-17 09:00:00 20.3 9 Oeste 15 Oeste 0 -- -- 71
2019-06-17 08:00:00 17 2 Noroeste 5 Sudoeste 0 -- -- 82
2019-06-17 07:00:00 16.1 3 Oeste 12 Sudoeste 0 -- -- 84
2019-06-17 06:00:00 15.9 6 Oeste 12 Oeste 0 -- -- 86
2019-06-17 05:00:00 16.5 5 Oeste 10 Sudoeste 0 -- -- 84
2019-06-17 04:00:00 16.3 5 Sudoeste 7 Oeste 0 -- -- 84
2019-06-17 03:00:00 17.2 0 Calma 8 Sudoeste 0 -- -- 80
2019-06-17 02:00:00 17.3 6 Sudoeste 8 Sudoeste 0 -- -- 82
2019-06-17 01:00:00 19.2 4 Sudeste 9 Este 0 -- -- 75
2019-06-17 00:00:00 19.3 4 Este 9 Este 0 -- -- 74
2019-06-16 23:00:00 19 0 Calma 5 Oeste 0 -- -- 82
2019-06-16 22:00:00 20.3 2 Noroeste 14 Este 0 -- -- 81
2019-06-16 21:00:00 20.8 9 Este 19 Nordeste 0 -- -- 80
2019-06-16 20:00:00 21.4 12 Este 19 Este 0 -- -- 77
2019-06-16 19:00:00 22.1 12 Nordeste 28 Nordeste 0 -- -- 73
2019-06-16 18:00:00 22.9 14 Este 28 Nordeste 0 -- -- 71
2019-06-16 17:00:00 22.1 18 Este 28 Este 0 -- -- 75
2019-06-16 16:00:00 22.6 15 Este 32 Este 0 -- -- 72
2019-06-16 15:00:00 23.3 18 Nordeste 31 Este 0 -- -- 69
2019-06-16 14:00:00 23.8 17 Nordeste 41 Este 0 -- -- 68
2019-06-16 13:00:00 23.5 19 Nordeste 34 Nordeste 0 -- -- 69
2019-06-16 12:00:00 23 17 Nordeste 38 Este 0 -- -- 72
2019-06-16 11:00:00 23.2 19 Nordeste 34 Este 0 -- -- 71
2019-06-16 10:00:00 23.8 15 Este 25 Este 0 -- -- 59
2019-06-16 09:00:00 21 5 Oeste 8 Oeste 0 -- -- 58
2019-06-16 08:00:00 19 6 Oeste 8 Oeste 0 -- -- 60
2019-06-16 07:00:00 16.5 4 Oeste 5 Oeste 0 -- -- 70
2019-06-16 06:00:00 16.8 0 Calma 3 Sudeste 0 -- -- 67
2019-06-16 05:00:00 16.9 0 Calma 0 Calma 0 -- -- 68
2019-06-16 04:00:00 17.7 0 Calma 6 Sudoeste 0 -- -- 64
2019-06-16 03:00:00 18.3 0 Calma 4 Este 0 -- -- 72
2019-06-16 02:00:00 19.4 3 Este 6 Este 0 -- -- 71
2019-06-16 01:00:00 19.8 3 Este 9 Nordeste 0 -- -- 70
2019-06-16 00:00:00 20.4 4 Este 9 Nordeste 0 -- -- 67
2019-06-15 23:00:00 21.3 5 Nordeste 17 Sudeste 0 -- -- 50
2019-06-15 22:00:00 23 10 Sur 22 Sudeste 0 -- -- 43
2019-06-15 21:00:00 24.5 13 Sur 30 Sur 0 -- -- 38
2019-06-15 20:00:00 26 14 Sur 30 Sur 0 -- -- 35
2019-06-15 19:00:00 27 18 Sur 31 Sur 0 -- -- 32
2019-06-15 18:00:00 28 16 Sudeste 31 Sur 0 -- -- 33
2019-06-15 17:00:00 28.3 18 Sur 32 Sudeste 0 -- -- 32
2019-06-15 16:00:00 28.7 18 Sur 29 Sudeste 0 -- -- 34
2019-06-15 15:00:00 29.1 15 Sudeste 28 Este 0 -- -- 33
2019-06-15 14:00:00 29.4 13 Sudeste 25 Sudeste 0 -- -- 29
2019-06-15 13:00:00 29.4 5 Nordeste 23 Oeste 0 -- -- 26
2019-06-15 12:00:00 27.5 8 Oeste 22 Oeste 0 -- -- 28
2019-06-15 11:00:00 26.6 8 Oeste 20 Noroeste 0 -- -- 29
2019-06-15 10:00:00 25.2 7 Norte 24 Noroeste 0 -- -- 34
2019-06-15 09:00:00 23 7 Noroeste 10 Noroeste 0 -- -- 38
2019-06-15 08:00:00 20.6 3 Oeste 11 Oeste 0 -- -- 43
2019-06-15 07:00:00 20.1 5 Oeste 18 Sudoeste 0 -- -- 41
2019-06-15 06:00:00 20.8 12 Sudoeste 23 Oeste 0 -- -- 39
2019-06-15 05:00:00 20.4 9 Oeste 17 Oeste 0 -- -- 41
2019-06-15 04:00:00 19.2 4 Noroeste 10 Sudoeste 0 -- -- 68
2019-06-15 03:00:00 19.9 6 Sudoeste 11 Sudoeste 0 -- -- 70
2019-06-15 02:00:00 19.6 6 Sudoeste 8 Sudoeste 0 -- -- 69
2019-06-15 01:00:00 20.5 3 Nordeste 11 Sur 0 -- -- 68
2019-06-15 00:00:00 21.5 8 Sur 21 Sudeste 0 -- -- 64
2019-06-14 23:00:00 22.8 13 Sudeste 21 Sudeste 0 -- -- 59
2019-06-14 22:00:00 24.2 9 Sudeste 15 Sur 0 -- -- 53
2019-06-14 21:00:00 26.8 5 Sur 24 Sur 0 -- -- 42
2019-06-14 20:00:00 28.3 15 Sur 32 Sudoeste 0 -- -- 38
2019-06-14 19:00:00 29 16 Sur 35 Sur 0 -- -- 39
2019-06-14 18:00:00 28.8 17 Sur 36 Sur 0 -- -- 41
2019-06-14 17:00:00 28.7 19 Sur 36 Sudeste 0 -- -- 40
2019-06-14 16:00:00 29.1 22 Sudeste 39 Sudeste 0 -- -- 45
2019-06-14 15:00:00 28.7 16 Sur 33 Sudeste 0 -- -- 52
2019-06-14 14:00:00 27.7 15 Sur 27 Sudeste 0 -- -- 57
2019-06-14 13:00:00 27.1 15 Sudeste 26 Sur 0 -- -- 59
2019-06-14 12:00:00 25.8 10 Sudoeste 22 Sudoeste 0 -- -- 56
2019-06-14 11:00:00 22.9 9 Sudoeste 17 Sudoeste 0.2 -- -- 73
2019-06-14 10:00:00 20.8 6 Sudoeste 21 Oeste 0 -- -- 73
2019-06-14 09:00:00 22.7 12 Oeste 21 Sudoeste 0 -- -- 60
2019-06-14 08:00:00 21.4 6 Sudoeste 16 Sur 0 -- -- 61
2019-06-14 07:00:00 20.2 10 Sudoeste 22 Sudoeste 0 -- -- 66
2019-06-14 06:00:00 20.4 11 Sudoeste 24 Sudoeste 0 -- -- 67
2019-06-14 05:00:00 20.3 6 Oeste 18 Sudoeste 0 -- -- 65
2019-06-14 04:00:00 20.6 9 Sur 18 Sur 0 -- -- 65
2019-06-14 03:00:00 20.4 11 Sudoeste 21 Sudoeste 0 -- -- 63
2019-06-14 02:00:00 19.7 11 Oeste 26 Sudoeste 0 -- -- 69
2019-06-14 01:00:00 19.3 10 Oeste 19 Oeste 0 -- -- 71
2019-06-14 00:00:00 19.8 9 Oeste 15 Oeste 0 -- -- 69
2019-06-13 23:00:00 20.3 4 Norte 25 Este 0 -- -- 68
2019-06-13 22:00:00 20.9 16 Este 34 Este 0 -- -- 65
2019-06-13 21:00:00 21.3 18 Nordeste 37 Este 0 -- -- 65
2019-06-13 20:00:00 22.2 20 Este 39 Este 0 -- -- 64
2019-06-13 19:00:00 23 22 Este 40 Este 0 -- -- 64
2019-06-13 18:00:00 23.2 25 Este 42 Este 0 -- -- 65
2019-06-13 17:00:00 23.7 27 Este 49 Este 0 -- -- 60
2019-06-13 16:00:00 23.8 29 Este 49 Este 0 -- -- 55
2019-06-13 15:00:00 23.7 30 Este 47 Nordeste 0 -- -- 57
2019-06-13 14:00:00 23.5 30 Nordeste 49 Nordeste 0 -- -- 56
2019-06-13 13:00:00 23.5 26 Este 42 Este 0 -- -- 59
2019-06-13 12:00:00 23.6 25 Este 40 Este 0 -- -- 60
2019-06-13 11:00:00 23.2 23 Nordeste 36 Nordeste 0 -- -- 58
2019-06-13 10:00:00 21.9 19 Nordeste 40 Nordeste 0 -- -- 67
2019-06-13 09:00:00 20.8 18 Nordeste 32 Nordeste 0 -- -- 76
2019-06-13 08:00:00 19.8 15 Nordeste 28 Nordeste 0 -- -- 80
2019-06-13 07:00:00 19.2 11 Nordeste 24 Nordeste 0 -- -- 85
2019-06-13 06:00:00 19.5 12 Nordeste 23 Nordeste 0 -- -- 85
2019-06-13 05:00:00 19.8 11 Este 22 Este 0 -- -- 84
2019-06-13 04:00:00 19.8 8 Este 19 Este 0 -- -- 85
2019-06-13 03:00:00 19.3 6 Nordeste 13 Norte 0 -- -- 87
2019-06-13 02:00:00 19.8 6 Nordeste 14 Nordeste 0 -- -- 84
2019-06-13 01:00:00 19.7 10 Nordeste 21 Nordeste 0 -- -- 85
2019-06-13 00:00:00 19.8 10 Nordeste 26 Nordeste 0 -- -- 84
2019-06-12 23:00:00 19.9 15 Nordeste 29 Este 0 -- -- 82
2019-06-12 22:00:00 19.9 17 Nordeste 27 Nordeste 0 -- -- 79
2019-06-12 21:00:00 19.9 18 Nordeste 31 Nordeste 0 -- -- 77
2019-06-12 20:00:00 20.7 21 Nordeste 37 Nordeste 0 -- -- 74
2019-06-12 19:00:00 21 23 Este 36 Nordeste 0 -- -- 71
2019-06-12 18:00:00 21.7 23 Este 37 Nordeste 0 -- -- 66
2019-06-12 17:00:00 22.1 24 Este 42 Este 0 -- -- 63
2019-06-12 16:00:00 22.8 19 Este 31 Nordeste 0 -- -- 56
2019-06-12 15:00:00 22.3 21 Este 37 Este 0 -- -- 54
2019-06-12 14:00:00 22.7 19 Este 37 Este 0 -- -- 48
2019-06-12 13:00:00 22.5 19 Este 32 Este 0 -- -- 48
2019-06-12 12:00:00 22.4 12 Nordeste 26 Este 0 -- -- 43
2019-06-12 11:00:00 21.2 13 Este 27 Este 0 -- -- 48
2019-06-12 10:00:00 20.8 14 Nordeste 22 Nordeste 0 -- -- 48
2019-06-12 09:00:00 18.4 3 Norte 7 Oeste 0 -- -- 70
2019-06-12 08:00:00 16.5 4 Oeste 6 Oeste 0 -- -- 75
2019-06-12 07:00:00 15 5 Sudoeste 9 Sudoeste 0 -- -- 80
2019-06-12 06:00:00 16.3 3 Noroeste 24 Este 0 -- -- 73
2019-06-12 05:00:00 17 10 Este 18 Nordeste 0 -- -- 71
2019-06-12 04:00:00 16.5 4 Nordeste 9 Norte 0 -- -- 73
2019-06-12 03:00:00 17.4 6 Nordeste 24 Nordeste 0 -- -- 72
2019-06-12 02:00:00 17.8 17 Nordeste 31 Nordeste 0 -- -- 71
2019-06-12 01:00:00 18 17 Nordeste 31 Nordeste 0 -- -- 71
2019-06-12 00:00:00 18.7 17 Nordeste 28 Nordeste 0 -- -- 71
2019-06-11 23:00:00 19 18 Nordeste 40 Nordeste 0 -- -- 70
2019-06-11 22:00:00 19.5 23 Nordeste 42 Nordeste 0 -- -- 70
2019-06-11 21:00:00 19.2 26 Nordeste 45 Nordeste 0 -- -- 70
2019-06-11 20:00:00 19.9 27 Nordeste 51 Nordeste 0 -- -- 72
2019-06-11 19:00:00 21.8 24 Este 47 Nordeste 0 -- -- 72
2019-06-11 18:00:00 23 20 Este 33 Este 0 -- -- 68
2019-06-11 17:00:00 24 15 Este 30 Este 0 -- -- 66
2019-06-11 16:00:00 24.4 13 Sudeste 28 Sudeste 0 -- -- 64
2019-06-11 15:00:00 24.3 15 Este 28 Este 0 -- -- 65
2019-06-11 14:00:00 24.3 14 Este 33 Este 0 -- -- 63
2019-06-11 13:00:00 24.3 15 Este 29 Este 0 -- -- 63
2019-06-11 12:00:00 24 13 Nordeste 23 Nordeste 0 -- -- 64
2019-06-11 11:00:00 23.6 11 Este 20 Este 0 -- -- 67
2019-06-11 10:00:00 21.8 5 Nordeste 10 Norte 0 -- -- 74
2019-06-11 09:00:00 19 6 Noroeste 9 Oeste 0 -- -- 86
2019-06-11 08:00:00 16.8 0 Calma 3 Oeste 0 -- -- 93
2019-06-11 07:00:00 16.4 0 Calma 5 Noroeste 0 -- -- 90
2019-06-11 06:00:00 17.5 2 Oeste 8 Oeste 0 -- -- 91
2019-06-11 05:00:00 17.3 3 Oeste 5 Oeste 0 -- -- 93
2019-06-11 04:00:00 17.4 3 Oeste 5 Oeste 0 -- -- 92
2019-06-11 03:00:00 18 2 Sur 4 Sur 0 -- -- 91
2019-06-11 02:00:00 19.2 0 Calma 8 Sudeste 0 -- -- 89
2019-06-11 01:00:00 19.6 4 Este 10 Este 0 -- -- 88
2019-06-11 00:00:00 19.6 5 Este 13 Nordeste 0 -- -- 85
2019-06-10 23:00:00 20.3 6 Nordeste 13 Este 0 -- -- 84
2019-06-10 22:00:00 20.7 9 Nordeste 14 Nordeste 0 -- -- 81
2019-06-10 21:00:00 21.8 9 Este 17 Nordeste 0 -- -- 78
2019-06-10 20:00:00 22.8 10 Este 19 Este 0 -- -- 69
2019-06-10 19:00:00 24.1 12 Este 25 Este 0 -- -- 54
2019-06-10 18:00:00 24.4 14 Este 28 Este 0 -- -- 53
2019-06-10 17:00:00 24.6 14 Este 30 Este 0 -- -- 55
2019-06-10 16:00:00 24.8 17 Este 31 Este 0 -- -- 48
2019-06-10 15:00:00 25.4 15 Este 35 Sudeste 0 -- -- 54
2019-06-10 14:00:00 25.3 16 Este 29 Este 0 -- -- 50
2019-06-10 13:00:00 25.9 13 Este 23 Este 0 -- -- 51
2019-06-10 12:00:00 25.7 12 Este 20 Este 0 -- -- 55
2019-06-10 11:00:00 24.9 9 Este 18 Este 0 -- -- 59
2019-06-10 10:00:00 23.9 12 Nordeste 19 Nordeste 0 -- -- 65
2019-06-10 09:00:00 22.5 8 Nordeste 19 Este 0 -- -- 77
2019-06-10 08:00:00 21.8 4 Nordeste 12 Nordeste 0 -- -- 44
2019-06-10 07:00:00 19.8 0 Calma 12 Oeste 0 -- -- 50
2019-06-10 06:00:00 20.7 3 Oeste 18 Sudoeste 0 -- -- 51
2019-06-10 05:00:00 19 5 Oeste 13 Oeste 0 -- -- 71
2019-06-10 04:00:00 19.7 6 Sudoeste 14 Oeste 0 -- -- 74
2019-06-10 03:00:00 20 8 Sudoeste 14 Oeste 0 -- -- 72
2019-06-10 02:00:00 19.6 5 Sudoeste 8 Sudoeste 0 -- -- 70
2019-06-10 01:00:00 21.2 4 Sudeste 6 Sudeste 0 -- -- 65
2019-06-10 00:00:00 22.8 5 Sudoeste 15 Sudoeste 0 -- -- 55
2019-06-09 23:00:00 23 8 Sudoeste 17 Sudoeste 0 -- -- 60
2019-06-09 22:00:00 23.7 9 Sudoeste 23 Sur 0 -- -- 58
2019-06-09 21:00:00 25.6 12 Sur 26 Sur 0 -- -- 53
2019-06-09 20:00:00 27.1 14 Sur 30 Sudoeste 0 -- -- 50
2019-06-09 19:00:00 27.7 17 Sur 30 Sur 0 -- -- 46
2019-06-09 18:00:00 27.6 18 Sur 32 Sur 0 -- -- 47
2019-06-09 17:00:00 26.5 18 Sur 36 Sur 0 -- -- 51
2019-06-09 16:00:00 27.1 18 Sur 34 Sudeste 0 -- -- 48
2019-06-09 15:00:00 26.7 15 Sudeste 24 Sur 0 -- -- 51
2019-06-09 14:00:00 27.6 10 Oeste 19 Oeste 0 -- -- 39
2019-06-09 13:00:00 27.3 7 Oeste 18 Sudoeste 0 -- -- 41
2019-06-09 12:00:00 26.3 9 Oeste 19 Oeste 0 -- -- 41
2019-06-09 11:00:00 24.8 10 Oeste 20 Oeste 0 -- -- 45
2019-06-09 10:00:00 23 11 Oeste 21 Oeste 0 -- -- 53
2019-06-09 09:00:00 21.2 6 Oeste 13 Oeste 0 -- -- 60
2019-06-09 08:00:00 19.9 7 Sudoeste 18 Sur 0 -- -- 63
2019-06-09 07:00:00 19 7 Sudoeste 14 Sudoeste 0 -- -- 67
2019-06-09 06:00:00 18.8 6 Sudoeste 13 Oeste 0 -- -- 70
2019-06-09 05:00:00 19.5 4 Oeste 17 Oeste 0 -- -- 68
2019-06-09 04:00:00 19.6 7 Sudoeste 14 Oeste 0 -- -- 70
2019-06-09 03:00:00 19.1 8 Oeste 16 Oeste 0 -- -- 75
2019-06-09 02:00:00 19.6 11 Oeste 15 Oeste 0 -- -- 75
2019-06-09 01:00:00 20 2 Noroeste 13 Nordeste 0 -- -- 74
2019-06-09 00:00:00 20.5 10 Este 21 Este 0 -- -- 73
2019-06-08 23:00:00 21.4 8 Este 24 Este 0 -- -- 68
2019-06-08 22:00:00 21.7 10 Este 26 Este 0 -- -- 67
2019-06-08 21:00:00 22.3 15 Este 39 Nordeste 0 -- -- 62
2019-06-08 20:00:00 22.9 24 Nordeste 46 Este 0 -- -- 60
2019-06-08 19:00:00 23.1 31 Nordeste 53 Nordeste 0 -- -- 61
2019-06-08 18:00:00 23.3 33 Este 50 Este 0 -- -- 63
2019-06-08 17:00:00 23.5 29 Este 54 Nordeste 0 -- -- 64
2019-06-08 16:00:00 23.6 31 Este 57 Este 0 -- -- 64
2019-06-08 15:00:00 23.6 32 Este 55 Este 0 -- -- 64
2019-06-08 14:00:00 23.7 34 Este 57 Nordeste 0 -- -- 64
2019-06-08 13:00:00 23.9 31 Este 53 Este 0 -- -- 63
2019-06-08 12:00:00 23.2 32 Este 50 Este 0 -- -- 67
2019-06-08 11:00:00 23.2 32 Este 50 Este 0 -- -- 66
2019-06-08 10:00:00 24.1 18 Este 31 Nordeste 0 -- -- 60
2019-06-08 09:00:00 21.6 3 Norte 9 Noroeste 0 -- -- 62
2019-06-08 08:00:00 19.1 6 Oeste 9 Oeste 0 -- -- 67
2019-06-08 07:00:00 17.1 3 Noroeste 6 Noroeste 0 -- -- 66
2019-06-08 06:00:00 17.2 2 Noroeste 5 Norte 0 -- -- 66
2019-06-08 05:00:00 17.4 3 Noroeste 6 Noroeste 0 -- -- 67
2019-06-08 04:00:00 17.4 0 Calma 5 Nordeste 0 -- -- 84
2019-06-08 03:00:00 18.1 2 Oeste 5 Oeste 0 -- -- 88
2019-06-08 02:00:00 19 0 Calma 5 Noroeste 0 -- -- 89
2019-06-08 01:00:00 20.1 0 Calma 11 Este 0 -- -- 83
2019-06-08 00:00:00 20.4 4 Este 12 Nordeste 0 -- -- 81
2019-06-07 23:00:00 20.9 8 Este 23 Este 0 -- -- 80
2019-06-07 22:00:00 21.6 12 Este 22 Este 0 -- -- 74
2019-06-07 21:00:00 25.3 7 Este 15 Sudeste 0 -- -- 47
2019-06-07 20:00:00 27 10 Sur 23 Sudeste 0 -- -- 32
2019-06-07 19:00:00 27.4 14 Sudeste 27 Sur 0 -- -- 35
2019-06-07 18:00:00 27.2 17 Sur 32 Sudeste 0 -- -- 37
2019-06-07 17:00:00 27.1 19 Sur 33 Sur 0 -- -- 41
2019-06-07 16:00:00 27.2 21 Sur 32 Sudeste 0 -- -- 43
2019-06-07 15:00:00 27.4 19 Sudeste 32 Sudeste 0 -- -- 42
2019-06-07 14:00:00 27 19 Sudeste 28 Sudeste 0 -- -- 45
2019-06-07 13:00:00 27.1 15 Sudeste 25 Este 0 -- -- 47
2019-06-07 12:00:00 26.9 6 Noroeste 14 Oeste 0 -- -- 37
2019-06-07 11:00:00 24.9 6 Sur 12 Oeste 0 -- -- 46
2019-06-07 10:00:00 22.4 5 Oeste 13 Oeste 0 -- -- 57
2019-06-07 09:00:00 20 6 Oeste 10 Oeste 0 -- -- 74
2019-06-07 08:00:00 17.3 3 Oeste 8 Oeste 0 -- -- 90
2019-06-07 07:00:00 16.2 4 Sudoeste 7 Oeste 0 -- -- 92
2019-06-07 06:00:00 16.2 0 Calma 6 Sudeste 0 -- -- 91
2019-06-07 05:00:00 16.5 4 Oeste 6 Oeste 0 -- -- 91
2019-06-07 04:00:00 16.7 3 Oeste 6 Noroeste 0 -- -- 90
2019-06-07 03:00:00 17.1 3 Oeste 4 Oeste 0 -- -- 86
2019-06-07 02:00:00 18.8 0 Calma 8 Sudeste 0 -- -- 82
2019-06-07 01:00:00 18.6 2 Sudeste 6 Sur 0 -- -- 82
2019-06-07 00:00:00 19.3 4 Sudeste 9 Sudeste 0 -- -- 79
2019-06-06 23:00:00 19.7 6 Este 12 Este 0 -- -- 81
2019-06-06 22:00:00 20 5 Este 15 Este 0 -- -- 80
2019-06-06 21:00:00 20.8 10 Este 18 Este 0 -- -- 77
2019-06-06 20:00:00 22.1 11 Este 19 Este 0 -- -- 72
2019-06-06 19:00:00 22.7 11 Este 19 Este 0 -- -- 69
2019-06-06 18:00:00 23.6 11 Sudeste 24 Este 0 -- -- 63
2019-06-06 17:00:00 23.5 13 Sudeste 26 Sudeste 0 -- -- 65
2019-06-06 16:00:00 23.9 13 Este 28 Sudeste 0 -- -- 64
2019-06-06 15:00:00 23.8 17 Este 32 Este 0 -- -- 64
2019-06-06 14:00:00 23.9 18 Este 35 Este 0 -- -- 64
2019-06-06 13:00:00 24.2 21 Este 36 Nordeste 0 -- -- 65
2019-06-06 12:00:00 23.8 19 Nordeste 30 Este 0 -- -- 68
2019-06-06 11:00:00 23.9 15 Nordeste 27 Nordeste 0 -- -- 69
2019-06-06 10:00:00 23.6 10 Nordeste 18 Nordeste 0 -- -- 64
2019-06-06 09:00:00 21.4 3 Norte 9 Noroeste 0 -- -- 42
2019-06-06 08:00:00 18.4 6 Oeste 13 Oeste 0 -- -- 39
2019-06-06 07:00:00 16.1 4 Noroeste 10 Oeste 0 -- -- 47
2019-06-06 06:00:00 15.6 4 Oeste 9 Oeste 0 -- -- 49
2019-06-06 05:00:00 16.8 5 Oeste 8 Oeste 0 -- -- 47
2019-06-06 04:00:00 17.7 4 Oeste 8 Oeste 0 -- -- 45
2019-06-06 03:00:00 18.6 7 Oeste 9 Sudoeste 0 -- -- 41
2019-06-06 02:00:00 19.5 0 Calma 8 Nordeste 0 -- -- 39
2019-06-06 01:00:00 21.4 2 Norte 13 Norte 0 -- -- 33
2019-06-06 00:00:00 21.5 5 Norte 9 Norte 0 -- -- 36
2019-06-05 23:00:00 23 4 Noroeste 17 Sur 0 -- -- 41
2019-06-05 22:00:00 24.4 7 Sur 22 Sur 0 -- -- 37
2019-06-05 21:00:00 25.8 9 Sur 22 Sur 0 -- -- 36
2019-06-05 20:00:00 27.8 3 Noroeste 23 Noroeste 0 -- -- 26
2019-06-05 19:00:00 29.3 11 Noroeste 37 Oeste 0 -- -- 19
2019-06-05 18:00:00 30.5 15 Noroeste 48 Noroeste 0 -- -- 18
2019-06-05 17:00:00 29.8 22 Noroeste 42 Oeste 0 -- -- 19
2019-06-05 16:00:00 28.6 25 Noroeste 44 Noroeste 0 -- -- 18
2019-06-05 15:00:00 28.9 26 Noroeste 46 Oeste 0 -- -- 19
2019-06-05 14:00:00 28.3 31 Noroeste 54 Oeste 0 -- -- 17
2019-06-05 13:00:00 28.2 32 Noroeste 46 Noroeste 0 -- -- 24
2019-06-05 12:00:00 28.1 22 Oeste 40 Oeste 0 -- -- 31
2019-06-05 11:00:00 27.1 21 Noroeste 36 Oeste 0 -- -- 38
2019-06-05 10:00:00 24.6 11 Oeste 25 Oeste 0 -- -- 54
2019-06-05 09:00:00 21.4 5 Oeste 12 Oeste 0 -- -- 69
2019-06-05 08:00:00 18 8 Oeste 17 Sudoeste 0 -- -- 84
2019-06-05 07:00:00 17.1 8 Oeste 15 Oeste 0 -- -- 84
2019-06-05 06:00:00 17 6 Sudoeste 9 Sudoeste 0 -- -- 92
2019-06-05 05:00:00 16.8 5 Sudoeste 9 Oeste 0 -- -- 89
2019-06-05 04:00:00 17.3 4 Sudoeste 9 Oeste 0 -- -- 83
2019-06-05 03:00:00 17.7 3 Sudoeste 5 Sur 0 -- -- 83
2019-06-05 02:00:00 18.4 0 Calma 9 Sur 0 -- -- 81
2019-06-05 01:00:00 19.7 2 Sudoeste 10 Sur 0 -- -- 85
2019-06-05 00:00:00 20 5 Sur 14 Sudeste 0 -- -- 83
2019-06-04 23:00:00 20.4 6 Sudeste 14 Sudeste 0 -- -- 81
2019-06-04 22:00:00 20.9 4 Sudeste 18 Sudeste 0 -- -- 75
2019-06-04 21:00:00 22 8 Sudeste 27 Sudeste 0 -- -- 70
2019-06-04 20:00:00 23.5 14 Sudeste 31 Sudeste 0 -- -- 66
2019-06-04 19:00:00 24.5 18 Sudeste 32 Sudeste 0 -- -- 60
2019-06-04 18:00:00 26.1 17 Sudeste 27 Sudeste 0 -- -- 56
2019-06-04 17:00:00 26.6 13 Sudeste 30 Sudeste 0 -- -- 59
2019-06-04 16:00:00 27.2 17 Sudeste 31 Sudeste 0 -- -- 53
2019-06-04 15:00:00 27 17 Sudeste 30 Sudeste 0 -- -- 57
2019-06-04 14:00:00 26.1 18 Sudeste 30 Sudeste 0 -- -- 61
2019-06-04 13:00:00 26.4 14 Sudeste 22 Sudeste 0 -- -- 60
2019-06-04 12:00:00 25.9 9 Sudeste 15 Sudeste 0 -- -- 56
2019-06-04 11:00:00 23.9 5 Sudeste 13 Sudeste 0 -- -- 63
2019-06-04 10:00:00 21.5 4 Noroeste 10 Noroeste 0 -- -- 79
2019-06-04 09:00:00 19.1 5 Noroeste 9 Oeste 0 -- -- 93
2019-06-04 08:00:00 17.8 0 Calma 4 Oeste 0 -- -- 95
2019-06-04 07:00:00 16.9 0 Calma 6 Oeste 0 -- -- 95
2019-06-04 06:00:00 16.5 0 Calma 5 Sudoeste 0 -- -- 95
2019-06-04 05:00:00 16.1 3 Oeste 4 Sudoeste 0 -- -- 94
2019-06-04 04:00:00 16.2 2 Oeste 4 Oeste 0 -- -- 92
2019-06-04 03:00:00 17.2 0 Calma 4 Sudoeste 0 -- -- 93
2019-06-04 02:00:00 18 0 Calma 4 Sudeste 0 -- -- 92
2019-06-04 01:00:00 18.6 3 Sudeste 6 Este 0 -- -- 91
2019-06-04 00:00:00 18.9 2 Este 5 Nordeste 0 -- -- 88
2019-06-03 23:00:00 20 0 Calma 9 Sudeste 0 -- -- 84
2019-06-03 22:00:00 20.9 3 Sudeste 12 Este 0 -- -- 80
2019-06-03 21:00:00 22.3 7 Sudeste 18 Sudeste 0 -- -- 70
2019-06-03 20:00:00 24.2 9 Sudeste 20 Sudeste 0 -- -- 55
2019-06-03 19:00:00 25.1 11 Sudeste 21 Sudeste 0 -- -- 52
2019-06-03 18:00:00 26 11 Sudeste 23 Sudeste 0 -- -- 47
2019-06-03 17:00:00 26 14 Sudeste 26 Sudeste 0 -- -- 47
2019-06-03 16:00:00 26.2 12 Sudeste 24 Sudeste 0 -- -- 46
2019-06-03 15:00:00 26.2 14 Este 22 Este 0 -- -- 43
2019-06-03 14:00:00 25.9 13 Sudeste 19 Este 0 -- -- 41
2019-06-03 13:00:00 25.9 9 Sudeste 19 Sudeste 0 -- -- 46
2019-06-03 12:00:00 25.7 10 Sudeste 17 Sudeste 0 -- -- 51
2019-06-03 11:00:00 24.3 5 Oeste 10 Oeste 0 -- -- 49
2019-06-03 10:00:00 23 2 Noroeste 9 Oeste 0 -- -- 53
2019-06-03 09:00:00 18.6 4 Oeste 8 Oeste 0 -- -- 66
2019-06-03 08:00:00 16.3 3 Noroeste 5 Noroeste 0 -- -- 82
2019-06-03 07:00:00 14.7 3 Sudoeste 5 Sudoeste 0 -- -- 91
2019-06-03 06:00:00 14.9 4 Sudoeste 5 Sudoeste 0 -- -- 91
2019-06-03 05:00:00 15.5 3 Oeste 4 Oeste 0 -- -- 90
2019-06-03 04:00:00 16.2 0 Calma 5 Sudoeste 0 -- -- 88
2019-06-03 03:00:00 16.6 4 Sudoeste 8 Sudoeste 0 -- -- 86
2019-06-03 02:00:00 16.9 5 Sudoeste 8 Oeste 0 -- -- 86
2019-06-03 01:00:00 18 0 Calma 5 Sudeste 0 -- -- 85
2019-06-03 00:00:00 18.8 3 Sudeste 8 Sudeste 0 -- -- 81
2019-06-02 23:00:00 19.3 3 Este 6 Este 0 -- -- 78
2019-06-02 22:00:00 20.3 4 Este 10 Este 0 -- -- 73
2019-06-02 21:00:00 22 7 Este 13 Este 0 -- -- 60
2019-06-02 20:00:00 23.3 9 Sudeste 20 Sudeste 0 -- -- 53
2019-06-02 19:00:00 24.3 12 Este 23 Este 0 -- -- 47
2019-06-02 18:00:00 25.1 13 Sudeste 24 Sudeste 0 -- -- 39
2019-06-02 17:00:00 26.3 12 Este 23 Sudeste 0 -- -- 33
2019-06-02 16:00:00 26.9 12 Este 22 Este 0 -- -- 29
2019-06-02 15:00:00 26.9 13 Este 22 Sudeste 0 -- -- 28
2019-06-02 14:00:00 26.8 14 Este 24 Este 0 -- -- 28
2019-06-02 13:00:00 27.4 10 Nordeste 19 Este 0 -- -- 24
2019-06-02 12:00:00 26.4 8 Nordeste 14 Nordeste 0 -- -- 26
2019-06-02 11:00:00 24.8 3 Norte 14 Oeste 0 -- -- 29
2019-06-02 10:00:00 21.5 8 Oeste 15 Oeste 0 -- -- 42
2019-06-02 09:00:00 18 8 Oeste 13 Oeste 0 -- -- 54
2019-06-02 08:00:00 15.4 4 Oeste 8 Oeste 0 -- -- 66
2019-06-02 07:00:00 13.8 2 Noroeste 10 Oeste 0 -- -- 71
2019-06-02 06:00:00 13.7 2 Noroeste 8 Sudoeste 0 -- -- 73
2019-06-02 05:00:00 15 4 Oeste 9 Oeste 0 -- -- 68
2019-06-02 04:00:00 15.5 6 Oeste 9 Oeste 0 -- -- 63
2019-06-02 03:00:00 15.8 4 Oeste 5 Oeste 0 -- -- 67
2019-06-02 02:00:00 16.3 0 Calma 2 Noroeste 0 -- -- 70
2019-06-02 01:00:00 16.8 0 Calma 3 Oeste 0 -- -- 70
2019-06-02 00:00:00 17.2 2 Oeste 5 Oeste 0 -- -- 70
2019-06-01 23:00:00 18.2 0 Calma 12 Este 0 -- -- 68
2019-06-01 22:00:00 20.3 9 Este 15 Este 0 -- -- 61
2019-06-01 21:00:00 21.8 10 Este 19 Este 0 -- -- 54
2019-06-01 20:00:00 23.2 11 Este 22 Nordeste 0 -- -- 44
2019-06-01 19:00:00 24.3 13 Este 25 Este 0 -- -- 38
2019-06-01 18:00:00 24.6 16 Este 24 Este 0 -- -- 40
2019-06-01 17:00:00 25.8 12 Este 23 Este 0 -- -- 31
2019-06-01 16:00:00 25.9 12 Este 22 Este 0 -- -- 34
2019-06-01 15:00:00 26 11 Este 22 Este 0 -- -- 31
2019-06-01 14:00:00 25.5 11 Este 21 Nordeste 0 -- -- 37
2019-06-01 13:00:00 25.1 12 Este 20 Este 0 -- -- 43
2019-06-01 12:00:00 24.4 11 Este 20 Nordeste 0 -- -- 43
2019-06-01 11:00:00 23.8 8 Este 13 Este 0 -- -- 42
2019-06-01 10:00:00 20.9 5 Noroeste 10 Oeste 0 -- -- 54
2019-06-01 09:00:00 17.9 6 Noroeste 13 Oeste 0 -- -- 69
2019-06-01 08:00:00 15.3 7 Oeste 10 Oeste 0 -- -- 77
2019-06-01 07:00:00 13.7 4 Oeste 6 Oeste 0 -- -- 87
2019-06-01 06:00:00 14.3 5 Oeste 8 Sudoeste 0 -- -- 83
2019-06-01 05:00:00 14.7 4 Oeste 8 Oeste 0 -- -- 84
2019-06-01 04:00:00 15.6 5 Oeste 8 Oeste 0 -- -- 82
2019-06-01 03:00:00 15.6 5 Oeste 8 Oeste 0 -- -- 83
2019-06-01 02:00:00 15.9 2 Oeste 5 Sudoeste 0 -- -- 82
2019-06-01 01:00:00 16.5 0 Calma 4 Sudoeste 0 -- -- 81
2019-06-01 00:00:00 17.1 0 Calma 5 Nordeste 0 -- -- 78
2019-05-31 23:00:00 18.4 3 Nordeste 9 Nordeste 0 -- -- 74
2019-05-31 22:00:00 19.1 4 Este 11 Este 0 -- -- 70
2019-05-31 21:00:00 20.6 8 Este 13 Nordeste 0 -- -- 64
2019-05-31 20:00:00 21.7 9 Este 19 Este 0 -- -- 59
2019-05-31 19:00:00 22.5 11 Este 21 Este 0 -- -- 53
2019-05-31 18:00:00 22.9 12 Este 26 Este 0 -- -- 52
2019-05-31 17:00:00 23.2 16 Este 29 Este 0 -- -- 49
2019-05-31 16:00:00 23.6 15 Este 27 Este 0 -- -- 54
2019-05-31 15:00:00 23.2 15 Este 26 Este 0 -- -- 57
2019-05-31 14:00:00 23.1 12 Sudeste 24 Sudeste 0 -- -- 60
2019-05-31 13:00:00 22.9 14 Este 22 Este 0 -- -- 59
2019-05-31 12:00:00 23.3 9 Sudeste 20 Sudeste 0 -- -- 54
2019-05-31 11:00:00 23.1 7 Sudeste 14 Este 0 -- -- 48
2019-05-31 10:00:00 20.8 3 Este 8 Sudeste 0 -- -- 57
2019-05-31 09:00:00 17.5 4 Oeste 9 Oeste 0 -- -- 76
2019-05-31 08:00:00 15.6 3 Noroeste 8 Oeste 0 -- -- 82
2019-05-31 07:00:00 12.8 3 Oeste 5 Noroeste 0 -- -- 91
2019-05-31 06:00:00 13.3 0 Calma 4 Oeste 0 -- -- 88
2019-05-31 05:00:00 14 0 Calma 4 Oeste 0 -- -- 86
2019-05-31 04:00:00 14.7 3 Oeste 9 Sudoeste 0 -- -- 84
2019-05-31 03:00:00 15.2 6 Sudoeste 8 Oeste 0 -- -- 81
2019-05-31 02:00:00 15.3 4 Sudoeste 5 Sudoeste 0 -- -- 81
2019-05-31 01:00:00 15.8 0 Calma 3 Sudoeste 0 -- -- 79
2019-05-31 00:00:00 16.7 0 Calma 3 Sudeste 0 -- -- 76
2019-05-30 23:00:00 17.6 0 Calma 8 Este 0 -- -- 72
2019-05-30 22:00:00 18.8 4 Este 15 Este 0 -- -- 67
2019-05-30 21:00:00 19.9 8 Este 20 Este 0 -- -- 64
2019-05-30 20:00:00 20.8 13 Sudeste 25 Sudeste 0 -- -- 59
2019-05-30 19:00:00 21.9 13 Sudeste 27 Sudeste 0 -- -- 51
2019-05-30 18:00:00 22.7 12 Este 26 Este 0 -- -- 44
2019-05-30 17:00:00 22.9 12 Este 26 Este 0 -- -- 50
2019-05-30 16:00:00 23 15 Este 26 Este 0 -- -- 47
2019-05-30 15:00:00 22.7 16 Este 27 Este 0 -- -- 47
2019-05-30 14:00:00 23.4 11 Sudeste 22 Sur 0 -- -- 47
2019-05-30 13:00:00 23.1 9 Sudeste 23 Sudeste 0 -- -- 48
2019-05-30 12:00:00 22.9 7 Este 17 Sudeste 0 -- -- 50
2019-05-30 11:00:00 21.4 5 Norte 14 Norte 0 -- -- 59
2019-05-30 10:00:00 20.2 4 Norte 10 Norte 0 -- -- 65
2019-05-30 09:00:00 17.6 4 Noroeste 7 Oeste 0 -- -- 71
2019-05-30 08:00:00 15.3 3 Noroeste 5 Noroeste 0 -- -- 80
2019-05-30 07:00:00 13.6 2 Noroeste 5 Oeste 0 -- -- 84
2019-05-30 06:00:00 14.7 3 Oeste 8 Oeste 0 -- -- 81
2019-05-30 05:00:00 14.3 3 Oeste 6 Noroeste 0 -- -- 83
2019-05-30 04:00:00 14.9 0 Calma 5 Noroeste 0 -- -- 78
2019-05-30 03:00:00 15.8 3 Noroeste 5 Noroeste 0 -- -- 78
2019-05-30 02:00:00 15.9 3 Oeste 5 Oeste 0 -- -- 81
2019-05-30 01:00:00 16.1 0 Calma 3 Noroeste 0 -- -- 79
2019-05-30 00:00:00 16.8 0 Calma 6 Este 0 -- -- 76
2019-05-29 23:00:00 17.9 5 Este 12 Nordeste 0 -- -- 76
2019-05-29 22:00:00 18.2 6 Este 14 Este 0 -- -- 70
2019-05-29 21:00:00 19.3 8 Nordeste 23 Este 0 -- -- 61
2019-05-29 20:00:00 20.5 15 Este 29 Este 0 -- -- 46
2019-05-29 19:00:00 21 15 Este 29 Nordeste 0 -- -- 49
2019-05-29 18:00:00 21.5 17 Este 36 Este 0 -- -- 49
2019-05-29 17:00:00 21.7 21 Este 36 Nordeste 0 -- -- 47
2019-05-29 16:00:00 21.2 24 Este 43 Este 0 -- -- 49
2019-05-29 15:00:00 21.1 23 Este 42 Este 0 -- -- 47
2019-05-29 14:00:00 21.8 22 Este 38 Nordeste 0 -- -- 48
2019-05-29 13:00:00 21.7 20 Este 38 Este 0 -- -- 50
2019-05-29 12:00:00 21.9 21 Este 35 Nordeste 0 -- -- 50
2019-05-29 11:00:00 21.2 20 Este 31 Este 0 -- -- 54
2019-05-29 10:00:00 20.6 16 Nordeste 30 Este 0 -- -- 58
2019-05-29 09:00:00 19.7 20 Este 36 Este 0 -- -- 57
2019-05-29 08:00:00 18.3 15 Nordeste 24 Nordeste 0 -- -- 65
2019-05-29 07:00:00 14.8 3 Oeste 4 Noroeste 0 -- -- 92
2019-05-29 06:00:00 14.9 2 Oeste 8 Oeste 0 -- -- 89
2019-05-29 05:00:00 16.1 4 Oeste 8 Oeste 0 -- -- 83
2019-05-29 04:00:00 15.8 4 Oeste 5 Oeste 0 -- -- 82
2019-05-29 03:00:00 16.2 0 Calma 5 Noroeste 0 -- -- 80
2019-05-29 02:00:00 16.6 0 Calma 5 Norte 0 -- -- 82
2019-05-29 01:00:00 17.3 2 Norte 5 Norte 0 -- -- 84
2019-05-29 00:00:00 18 0 Calma 11 Nordeste 0 -- -- 84
2019-05-28 23:00:00 18.7 8 Nordeste 21 Este 0 -- -- 83
2019-05-28 22:00:00 19.3 12 Nordeste 23 Nordeste 0 -- -- 82
2019-05-28 21:00:00 20 13 Este 27 Este 0 -- -- 79
2019-05-28 20:00:00 20.7 15 Este 25 Este 0 -- -- 78
2019-05-28 19:00:00 21.9 14 Este 29 Este 0 -- -- 75
2019-05-28 18:00:00 22 17 Este 31 Este 0 -- -- 72
2019-05-28 17:00:00 22.4 18 Este 33 Este 0 -- -- 70
2019-05-28 16:00:00 22.8 19 Este 33 Este 0 -- -- 67
2019-05-28 15:00:00 23 17 Este 33 Este 0 -- -- 67
2019-05-28 14:00:00 23.4 20 Este 30 Este 0 -- -- 62
2019-05-28 13:00:00 23.8 15 Este 30 Este 0 -- -- 53
2019-05-28 12:00:00 23.9 15 Nordeste 28 Este 0 -- -- 59
2019-05-28 11:00:00 24.1 13 Este 26 Este 0 -- -- 58
2019-05-28 10:00:00 22.7 5 Norte 12 Noroeste 0 -- -- 72
2019-05-28 09:00:00 20.5 8 Norte 12 Noroeste 0 -- -- 83
2019-05-28 08:00:00 18.9 3 Norte 6 Nordeste 0 -- -- 89
2019-05-28 07:00:00 18.3 3 Nordeste 8 Norte 0 -- -- 90
2019-05-28 06:00:00 18.7 0 Calma 4 Noroeste 0 -- -- 91
2019-05-28 05:00:00 18.8 2 Noroeste 4 Oeste 0 -- -- 91
2019-05-28 04:00:00 19 0 Calma 9 Este 0 -- -- 90
2019-05-28 03:00:00 19.6 6 Este 12 Nordeste 0 -- -- 89
2019-05-28 02:00:00 19.5 6 Este 14 Este 0 -- -- 90
2019-05-28 01:00:00 19.5 7 Este 17 Este 0 -- -- 90
2019-05-28 00:00:00 19.3 8 Este 13 Nordeste 0 -- -- 87
2019-05-27 23:00:00 19.8 5 Nordeste 16 Nordeste 0 -- -- 84
2019-05-27 22:00:00 20.8 6 Este 14 Nordeste 0 -- -- 77
2019-05-27 21:00:00 22.4 11 Nordeste 19 Nordeste 0 -- -- 72
2019-05-27 20:00:00 25.9 5 Sur 16 Sur 0 -- -- 44
2019-05-27 19:00:00 25.6 9 Sudeste 23 Sudeste 0 -- -- 50
2019-05-27 18:00:00 25.6 14 Sudeste 27 Sudeste 0 -- -- 49
2019-05-27 17:00:00 26.4 17 Sudeste 33 Sur 0 -- -- 47
2019-05-27 16:00:00 26.1 20 Sur 33 Sudeste 0 -- -- 50
2019-05-27 15:00:00 26.5 16 Sudeste 29 Sudeste 0 -- -- 50
2019-05-27 14:00:00 25.9 17 Sudeste 27 Sudeste 0 -- -- 53
2019-05-27 13:00:00 25.7 14 Sudeste 24 Sur 0 -- -- 54
2019-05-27 12:00:00 25.5 4 Norte 12 Noroeste 0 -- -- 45
2019-05-27 11:00:00 23.6 3 Oeste 14 Noroeste 0 -- -- 55
2019-05-27 10:00:00 21.1 9 Oeste 17 Noroeste 0 -- -- 67
2019-05-27 09:00:00 19.3 8 Oeste 15 Oeste 0 -- -- 80
2019-05-27 08:00:00 17.7 5 Oeste 11 Sudoeste 0 -- -- 87
2019-05-27 07:00:00 16.2 7 Oeste 14 Oeste 0 -- -- 92
2019-05-27 06:00:00 15.9 6 Oeste 15 Oeste 0 -- -- 92
2019-05-27 05:00:00 16.2 3 Oeste 9 Sudoeste 0 -- -- 91
2019-05-27 04:00:00 16.4 5 Oeste 8 Sudoeste 0 -- -- 88
2019-05-27 03:00:00 16.6 2 Sur 5 Sur 0 -- -- 82
2019-05-27 02:00:00 17.5 2 Este 6 Este 0 -- -- 85
2019-05-27 01:00:00 18.1 4 Este 6 Este 0 -- -- 86
2019-05-27 00:00:00 18.6 4 Este 6 Este 0 -- -- 80